Time;durP1;ratioP1;P1;durP2;ratioP2;P2;SDS_P1;SDS_P2;PMS_P1;PMS_P2;Temp;Humidity;BMP_temperature;BMP_pressure;BME280_temperature;BME280_humidity;BME280_pressure;Samples;Min_cycle;Max_cycle;Signal;HPM_P1;HPM_P2
2021/10/09 00:00:41;;;;;;;36.60;24.00;;;10.20;95.80;;;;;;5032904;28;20596;-76
2021/10/09 00:03:08;;;;;;;33.75;20.48;;;10.20;95.80;;;;;;5033120;28;20760;-76
2021/10/09 00:05:35;;;;;;;35.53;23.17;;;10.10;96.30;;;;;;5032784;28;20305;-76
2021/10/09 00:08:02;;;;;;;31.80;22.35;;;10.10;96.50;;;;;;5033134;28;20239;-77
2021/10/09 00:10:32;;;;;;;30.77;21.25;;;10.10;96.30;;;;;;5032292;28;20238;-76
2021/10/09 00:12:59;;;;;;;29.63;20.25;;;10.10;96.70;;;;;;5032728;28;20238;-77
2021/10/09 00:15:26;;;;;;;32.35;21.35;;;10.10;96.70;;;;;;5032939;28;20203;-76
2021/10/09 00:17:53;;;;;;;35.45;22.85;;;10.10;96.70;;;;;;5036633;28;20298;-77
2021/10/09 00:20:20;;;;;;;32.97;22.98;;;10.00;96.70;;;;;;5038954;28;20293;-77
2021/10/09 00:22:47;;;;;;;33.30;22.48;;;10.00;96.70;;;;;;5050532;28;20237;-77
2021/10/09 00:25:14;;;;;;;34.92;21.55;;;10.00;97.10;;;;;;5036311;28;20286;-77
2021/10/09 00:27:42;;;;;;;31.92;21.35;;;10.00;96.80;;;;;;5038389;28;20313;-77
2021/10/09 00:30:09;;;;;;;37.80;23.20;;;10.00;96.80;;;;;;5036281;28;20214;-77
2021/10/09 00:32:36;;;;;;;32.05;21.60;;;10.00;96.70;;;;;;5037171;28;20242;-76
2021/10/09 00:35:03;;;;;;;32.88;21.80;;;10.00;96.70;;;;;;5036741;28;20214;-77
2021/10/09 00:37:30;;;;;;;39.85;22.33;;;10.00;97.00;;;;;;5036340;28;20283;-77
2021/10/09 00:39:57;;;;;;;30.42;21.80;;;9.90;97.60;;;;;;5034961;28;20209;-76
2021/10/09 00:42:24;;;;;;;33.80;22.70;;;9.90;97.80;;;;;;5036477;28;20723;-76
2021/10/09 00:44:52;;;;;;;43.15;24.63;;;9.90;98.10;;;;;;5036001;28;20202;-76
2021/10/09 00:47:23;;;;;;;35.90;22.92;;;9.80;98.30;;;;;;5036960;28;20213;-76
2021/10/09 00:49:50;;;;;;;33.45;22.40;;;9.80;98.60;;;;;;5047066;28;20249;-76
2021/10/09 00:52:18;;;;;;;34.83;22.70;;;9.80;98.80;;;;;;5036559;28;20238;-76
2021/10/09 00:54:46;;;;;;;34.67;22.75;;;9.80;98.80;;;;;;5036505;28;20216;-76
2021/10/09 00:57:16;;;;;;;36.95;22.92;;;9.70;99.00;;;;;;5035308;28;20203;-76
2021/10/09 00:59:43;;;;;;;36.65;23.38;;;9.70;99.30;;;;;;5035441;28;20213;-76
2021/10/09 01:02:11;;;;;;;39.42;24.05;;;9.70;99.40;;;;;;5037012;28;20234;-76
2021/10/09 01:04:39;;;;;;;35.97;22.35;;;9.60;99.80;;;;;;5038043;28;20244;-76
2021/10/09 01:07:06;;;;;;;36.85;23.85;;;9.60;99.90;;;;;;5039126;28;20241;-77
2021/10/09 01:09:33;;;;;;;38.28;24.65;;;9.60;99.90;;;;;;5047804;28;20230;-77
2021/10/09 01:12:01;;;;;;;35.88;23.13;;;9.50;99.90;;;;;;5054990;28;20561;-77
2021/10/09 01:14:28;;;;;;;35.45;23.67;;;9.50;99.90;;;;;;5056837;28;20222;-76
2021/10/09 01:16:55;;;;;;;37.45;25.30;;;9.50;99.90;;;;;;5057432;28;20229;-76
2021/10/09 01:19:24;;;;;;;36.03;22.42;;;9.50;99.90;;;;;;5053064;28;20241;-77
2021/10/09 01:21:52;;;;;;;37.55;24.27;;;9.50;99.90;;;;;;5053418;28;20313;-76
2021/10/09 01:24:20;;;;;;;38.03;23.63;;;9.40;99.90;;;;;;5056647;28;20210;-75
2021/10/09 01:26:47;;;;;;;35.83;24.10;;;9.40;99.90;;;;;;5056637;28;20274;-76
2021/10/09 01:29:17;;;;;;;41.58;24.92;;;9.40;99.90;;;;;;5057300;28;20242;-77
2021/10/09 01:31:44;;;;;;;40.17;23.58;;;9.40;99.90;;;;;;5055898;28;20237;-76
2021/10/09 01:34:11;;;;;;;39.55;25.00;;;9.40;99.90;;;;;;5048950;28;20313;-77
2021/10/09 01:36:41;;;;;;;40.65;24.67;;;9.30;99.90;;;;;;5037884;28;20214;-77
2021/10/09 01:39:14;;;;;;;37.08;24.58;;;9.30;99.90;;;;;;5036651;28;20198;-76
2021/10/09 01:41:43;;;;;;;41.05;23.88;;;9.30;99.90;;;;;;5035999;28;20195;-76
2021/10/09 01:44:10;;;;;;;35.78;23.77;;;9.20;99.90;;;;;;5040520;28;20355;-77
2021/10/09 01:46:38;;;;;;;42.08;25.42;;;9.20;99.90;;;;;;5038451;28;20225;-76
2021/10/09 01:49:06;;;;;;;36.58;24.17;;;9.20;99.90;;;;;;5035659;28;20240;-77
2021/10/09 01:51:33;;;;;;;38.83;24.35;;;9.10;99.90;;;;;;5047224;28;20215;-75
2021/10/09 01:54:00;;;;;;;40.03;24.27;;;9.10;99.90;;;;;;5045236;28;20241;-77
2021/10/09 01:56:28;;;;;;;38.28;23.42;;;9.10;99.90;;;;;;5036973;28;20220;-79
2021/10/09 01:58:55;;;;;;;36.08;23.10;;;9.00;99.90;;;;;;5037297;28;20236;-76
2021/10/09 02:01:22;;;;;;;38.20;23.40;;;8.90;99.90;;;;;;5037897;28;20661;-76
2021/10/09 02:03:49;;;;;;;32.22;20.90;;;8.80;99.90;;;;;;5035946;28;20257;-76
2021/10/09 02:06:16;;;;;;;34.40;22.40;;;8.70;99.90;;;;;;5036057;28;20198;-77
2021/10/09 02:08:44;;;;;;;36.63;22.60;;;8.50;99.90;;;;;;5035931;28;20236;-78
2021/10/09 02:11:14;;;;;;;37.47;22.65;;;8.40;99.90;;;;;;5035334;28;20209;-78
2021/10/09 02:13:46;;;;;;;34.80;23.08;;;8.40;99.90;;;;;;5034192;28;20225;-77
2021/10/09 02:16:23;;;;;;;36.13;22.88;;;8.30;99.90;;;;;;5034769;28;20216;-76
2021/10/09 02:19:04;;;;;;;35.22;22.90;;;8.30;99.90;;;;;;5034948;28;20304;-76
2021/10/09 02:24:44;;;;;;;36.65;23.05;;;8.20;99.90;;;;;;5005395;28;20202;-77
2021/10/09 02:27:12;;;;;;;38.55;23.88;;;8.20;99.90;;;;;;5010569;28;20633;-77
2021/10/09 02:29:40;;;;;;;36.63;22.65;;;8.20;99.90;;;;;;5031033;28;20253;-76
2021/10/09 02:32:07;;;;;;;36.10;23.58;;;8.10;99.90;;;;;;5052087;28;20241;-76
2021/10/09 02:34:34;;;;;;;40.47;24.00;;;8.10;99.90;;;;;;5050231;28;20260;-77
2021/10/09 02:37:01;;;;;;;37.95;24.48;;;8.10;99.90;;;;;;5051634;28;20213;-76
2021/10/09 02:39:28;;;;;;;41.22;24.40;;;8.10;99.90;;;;;;5050932;28;20198;-77
2021/10/09 02:41:55;;;;;;;31.88;22.05;;;8.00;99.90;;;;;;5049319;28;20217;-77
2021/10/09 02:44:22;;;;;;;33.03;23.48;;;8.00;99.90;;;;;;5037027;28;20202;-77
2021/10/09 02:46:50;;;;;;;40.80;22.90;;;8.00;99.90;;;;;;5034063;28;20215;-76
2021/10/09 02:49:17;;;;;;;37.00;23.45;;;8.00;99.90;;;;;;5033521;28;20316;-77
2021/10/09 02:51:44;;;;;;;39.25;24.55;;;8.00;99.90;;;;;;5034094;28;20221;-76
2021/10/09 02:54:10;;;;;;;37.15;24.75;;;8.00;99.90;;;;;;5034016;28;20851;-77
2021/10/09 02:56:37;;;;;;;36.45;23.85;;;8.00;99.90;;;;;;5033744;28;20240;-77
2021/10/09 02:59:04;;;;;;;36.13;23.83;;;8.00;99.90;;;;;;5033200;28;20215;-77
2021/10/09 03:01:31;;;;;;;37.33;23.60;;;8.00;99.90;;;;;;5032943;28;20562;-77
2021/10/09 03:04:00;;;;;;;41.20;24.60;;;8.00;99.90;;;;;;5033361;28;20634;-76
2021/10/09 03:06:26;;;;;;;38.67;24.20;;;8.00;99.90;;;;;;5033838;28;20216;-77
2021/10/09 03:08:54;;;;;;;38.13;23.88;;;8.00;99.90;;;;;;5038758;28;20241;-78
2021/10/09 03:11:21;;;;;;;43.08;24.23;;;7.90;99.90;;;;;;5039012;28;20215;-76
2021/10/09 03:13:47;;;;;;;40.30;24.33;;;7.90;99.90;;;;;;5038797;28;20226;-76
2021/10/09 03:16:14;;;;;;;42.42;24.27;;;7.80;99.90;;;;;;5039462;28;20299;-76
2021/10/09 03:18:41;;;;;;;37.95;23.70;;;7.90;99.90;;;;;;5040471;28;20200;-76
2021/10/09 03:21:09;;;;;;;35.88;23.08;;;7.90;99.90;;;;;;5042524;28;20240;-76
2021/10/09 03:23:36;;;;;;;39.13;23.52;;;7.90;99.90;;;;;;5037105;28;20230;-77
2021/10/09 03:26:04;;;;;;;39.92;24.00;;;7.80;99.90;;;;;;5036816;28;20309;-76
2021/10/09 03:28:31;;;;;;;33.53;22.77;;;7.70;99.90;;;;;;5036720;28;20237;-76
2021/10/09 03:30:58;;;;;;;30.27;21.90;;;7.70;99.90;;;;;;5017652;28;20205;-77
2021/10/09 03:33:24;;;;;;;38.90;23.65;;;7.70;99.90;;;;;;5020351;28;20685;-76
2021/10/09 03:35:51;;;;;;;37.15;23.67;;;7.70;99.90;;;;;;5036192;28;20209;-76
2021/10/09 03:38:20;;;;;;;43.25;24.45;;;7.70;99.90;;;;;;5035034;28;20224;-77
2021/10/09 03:40:51;;;;;;;42.58;23.75;;;7.70;99.90;;;;;;5033007;28;20234;-77
2021/10/09 03:43:22;;;;;;;38.83;24.90;;;7.70;99.90;;;;;;5033146;28;20233;-76
2021/10/09 03:45:54;;;;;;;37.03;23.60;;;7.70;99.90;;;;;;5033624;28;20248;-77
2021/10/09 03:48:33;;;;;;;39.05;25.13;;;7.60;99.90;;;;;;5032737;28;20243;-76
2021/10/09 03:53:46;;;;;;;40.25;24.23;;;7.50;99.90;;;;;;5036842;28;20262;-76
2021/10/09 03:56:12;;;;;;;40.15;24.15;;;7.50;99.90;;;;;;5036877;28;20223;-76
2021/10/09 03:58:39;;;;;;;38.55;24.73;;;7.50;99.90;;;;;;5037541;28;20208;-77
2021/10/09 04:01:06;;;;;;;38.70;24.33;;;7.40;99.90;;;;;;5037031;28;20213;-77
2021/10/09 04:03:33;;;;;;;45.40;26.05;;;7.50;99.90;;;;;;5036754;28;20231;-77
2021/10/09 04:06:00;;;;;;;41.95;25.40;;;7.40;99.90;;;;;;5036925;28;20267;-76
2021/10/09 04:08:27;;;;;;;40.63;25.20;;;7.40;99.90;;;;;;5037118;28;20209;-76
2021/10/09 04:10:55;;;;;;;39.58;24.52;;;7.30;99.90;;;;;;5036827;28;20292;-76
2021/10/09 04:13:22;;;;;;;38.10;22.77;;;7.30;99.90;;;;;;5037250;28;20233;-76
2021/10/09 04:15:49;;;;;;;36.10;23.08;;;7.20;99.90;;;;;;5036525;28;20676;-76
2021/10/09 04:18:16;;;;;;;42.13;24.50;;;7.20;99.90;;;;;;5037371;28;20212;-76
2021/10/09 04:20:43;;;;;;;42.00;25.60;;;7.20;99.90;;;;;;5037626;28;20215;-76
2021/10/09 04:23:10;;;;;;;52.28;25.70;;;7.30;99.90;;;;;;5038402;28;20252;-76
2021/10/09 04:25:37;;;;;;;41.97;27.02;;;7.40;99.90;;;;;;5037803;28;20208;-76
2021/10/09 04:28:05;;;;;;;53.97;26.92;;;7.40;99.90;;;;;;5037807;28;20223;-77
2021/10/09 04:30:33;;;;;;;45.22;27.33;;;7.40;99.90;;;;;;5037036;28;20322;-77
2021/10/09 04:33:01;;;;;;;47.80;27.58;;;7.50;99.90;;;;;;5036852;28;20256;-77
2021/10/09 04:35:27;;;;;;;44.85;27.65;;;7.50;99.90;;;;;;5036266;28;20768;-78
2021/10/09 04:37:54;;;;;;;50.67;27.95;;;7.50;99.90;;;;;;5036422;28;22158;-77
2021/10/09 04:40:21;;;;;;;47.08;26.13;;;7.50;99.90;;;;;;5036419;28;20207;-78
2021/10/09 04:42:48;;;;;;;55.13;29.10;;;7.50;99.90;;;;;;5036892;28;20233;-77
2021/10/09 04:45:17;;;;;;;55.13;28.75;;;7.60;99.90;;;;;;5036105;28;20209;-77
2021/10/09 04:47:43;;;;;;;56.55;29.90;;;7.60;99.90;;;;;;5037497;28;20274;-77
2021/10/09 04:50:10;;;;;;;48.20;27.27;;;7.60;99.90;;;;;;5017033;28;20590;-78
2021/10/09 04:52:37;;;;;;;52.95;28.50;;;7.60;99.90;;;;;;5016582;28;20238;-78
2021/10/09 04:55:05;;;;;;;49.75;28.25;;;7.60;99.90;;;;;;5036559;28;20265;-78
2021/10/09 04:57:32;;;;;;;47.83;28.80;;;7.60;99.90;;;;;;5037496;28;20663;-77
2021/10/09 04:59:58;;;;;;;48.58;26.77;;;7.70;99.90;;;;;;5038496;28;20199;-78
2021/10/09 05:02:27;;;;;;;44.60;27.15;;;7.70;99.90;;;;;;5037857;28;20255;-79
2021/10/09 05:04:54;;;;;;;48.58;26.75;;;7.70;99.90;;;;;;5053237;28;20294;-79
2021/10/09 05:07:20;;;;;;;46.10;28.90;;;7.70;99.90;;;;;;5057984;28;20297;-79
2021/10/09 05:09:50;;;;;;;51.28;27.52;;;7.70;99.90;;;;;;5057168;28;20317;-78
2021/10/09 05:12:17;;;;;;;38.60;26.33;;;7.70;99.90;;;;;;5039184;28;20715;-78
2021/10/09 05:14:44;;;;;;;43.65;25.95;;;7.70;99.90;;;;;;5038185;28;20299;-79
2021/10/09 05:17:11;;;;;;;40.75;26.83;;;7.70;99.90;;;;;;5036339;28;20560;-77
2021/10/09 05:19:39;;;;;;;40.97;25.48;;;7.60;99.90;;;;;;5035701;28;20232;-78
2021/10/09 05:22:06;;;;;;;41.97;26.05;;;7.60;99.90;;;;;;5036449;28;20292;-78
2021/10/09 05:24:32;;;;;;;45.92;25.83;;;7.60;99.90;;;;;;5035654;28;20294;-78
2021/10/09 05:26:59;;;;;;;42.33;25.27;;;7.60;99.90;;;;;;5034816;28;20204;-77
2021/10/09 05:29:26;;;;;;;38.78;24.15;;;7.60;99.90;;;;;;5034704;28;20337;-77
2021/10/09 05:32:02;;;;;;;42.80;24.88;;;7.60;99.90;;;;;;5035050;28;20579;-77
2021/10/09 05:34:29;;;;;;;48.58;26.48;;;7.50;99.90;;;;;;5035250;28;20648;-77
2021/10/09 05:36:58;;;;;;;38.90;25.15;;;7.60;99.90;;;;;;5035040;28;20203;-78
2021/10/09 05:39:24;;;;;;;42.15;23.52;;;7.60;99.90;;;;;;5036988;28;20247;-77
2021/10/09 05:41:51;;;;;;;41.88;25.20;;;7.60;99.90;;;;;;5036470;28;20302;-78
2021/10/09 05:44:18;;;;;;;44.85;25.40;;;7.50;99.90;;;;;;5035636;28;20212;-78
2021/10/09 05:46:45;;;;;;;45.28;26.15;;;7.50;99.90;;;;;;5035240;28;20302;-77
2021/10/09 05:49:13;;;;;;;46.75;27.30;;;7.50;99.90;;;;;;5034768;28;20291;-78
2021/10/09 05:51:43;;;;;;;45.03;25.45;;;7.50;99.90;;;;;;5035558;28;20214;-78
2021/10/09 05:54:17;;;;;;;39.35;26.42;;;7.40;99.90;;;;;;5035816;28;20253;-77
2021/10/09 05:56:56;;;;;;;40.25;25.08;;;7.50;99.90;;;;;;5015181;28;20233;-78
2021/10/09 06:44:26;;;;;;;40.05;21.80;;;7.90;99.90;;;;;;5035655;28;20255;-76
2021/10/09 06:47:17;;;;;;;35.60;22.25;;;8.00;99.90;;;;;;5035292;28;20293;-78
2021/10/09 07:00:49;;;;;;;31.65;21.17;;;8.30;99.90;;;;;;5040008;28;20295;-78
2021/10/09 07:03:18;;;;;;;28.98;21.52;;;8.30;99.90;;;;;;5040272;28;20223;-77
2021/10/09 07:05:45;;;;;;;30.83;19.80;;;8.40;99.90;;;;;;5040313;28;20214;-77
2021/10/09 07:08:12;;;;;;;31.00;20.15;;;8.50;99.70;;;;;;5041019;28;20295;-79
2021/10/09 07:10:42;;;;;;;30.80;20.50;;;8.50;98.90;;;;;;5037443;28;20295;-77
2021/10/09 07:13:09;;;;;;;32.60;20.05;;;8.60;98.30;;;;;;5038777;28;20225;-77
2021/10/09 07:15:36;;;;;;;33.88;19.52;;;8.70;97.70;;;;;;5038061;28;20630;-76
2021/10/09 07:18:09;;;;;;;30.67;19.83;;;8.70;96.90;;;;;;5038707;28;20204;-77
2021/10/09 07:20:35;;;;;;;27.17;18.33;;;8.80;96.20;;;;;;5039684;28;20210;-77
2021/10/09 07:23:03;;;;;;;28.30;18.60;;;8.90;96.00;;;;;;5038834;28;20316;-75
2021/10/09 07:25:30;;;;;;;27.75;19.17;;;8.90;94.70;;;;;;5034706;28;20215;-77
2021/10/09 07:27:57;;;;;;;25.65;18.90;;;8.90;94.70;;;;;;5037526;28;20214;-76
2021/10/09 07:30:24;;;;;;;25.85;18.13;;;9.00;93.90;;;;;;5043493;28;20326;-76
2021/10/09 07:32:51;;;;;;;29.02;18.55;;;9.10;93.50;;;;;;5049985;28;20298;-77
2021/10/09 07:35:19;;;;;;;29.58;18.48;;;9.10;92.30;;;;;;5033952;28;20297;-78
2021/10/09 07:37:46;;;;;;;23.17;16.90;;;9.10;91.90;;;;;;5047197;28;20650;-75
2021/10/09 07:40:13;;;;;;;23.60;16.65;;;9.20;91.50;;;;;;5055519;28;20543;-77
2021/10/09 07:42:40;;;;;;;21.40;16.35;;;9.30;91.40;;;;;;5055781;28;20282;-77
2021/10/09 07:45:08;;;;;;;28.60;16.90;;;9.30;90.80;;;;;;5055603;28;20205;-77
2021/10/09 07:47:36;;;;;;;30.17;17.88;;;9.40;90.40;;;;;;5055236;28;20296;-76
2021/10/09 07:50:03;;;;;;;23.88;17.25;;;9.40;90.20;;;;;;5049079;28;20242;-77
2021/10/09 07:52:31;;;;;;;36.67;18.00;;;9.50;89.90;;;;;;5046125;28;20312;-77
2021/10/09 07:54:58;;;;;;;26.05;17.92;;;9.60;89.30;;;;;;5045166;28;20212;-76
2021/10/09 07:57:25;;;;;;;24.63;16.92;;;9.60;87.50;;;;;;5048789;28;20202;-76
2021/10/09 07:59:51;;;;;;;25.00;16.98;;;9.70;87.30;;;;;;5056111;28;20565;-76
2021/10/09 08:02:18;;;;;;;24.08;16.52;;;9.80;87.40;;;;;;5056473;28;20230;-77
2021/10/09 08:04:45;;;;;;;29.85;17.10;;;9.90;85.60;;;;;;5055632;28;20213;-77
2021/10/09 08:07:12;;;;;;;32.08;19.05;;;9.90;85.60;;;;;;5039457;28;20272;-76
2021/10/09 08:09:40;;;;;;;23.13;16.88;;;9.90;85.30;;;;;;5038897;28;20249;-76
2021/10/09 08:12:07;;;;;;;26.95;16.63;;;10.00;84.70;;;;;;5020463;28;20230;-76
2021/10/09 08:14:34;;;;;;;26.27;17.23;;;10.10;83.30;;;;;;5025664;28;20214;-76
2021/10/09 08:17:01;;;;;;;26.65;17.38;;;10.10;82.60;;;;;;5049468;28;20218;-76
2021/10/09 08:19:28;;;;;;;21.05;15.73;;;10.20;82.20;;;;;;5051370;28;20214;-75
2021/10/09 08:21:59;;;;;;;20.92;15.85;;;10.30;81.70;;;;;;5047771;28;20210;-76
2021/10/09 08:24:32;;;;;;;19.42;14.88;;;10.40;80.10;;;;;;5044173;28;20211;-76
2021/10/09 08:27:38;;;;;;;29.27;16.95;;;10.40;79.50;;;;;;5045398;28;20230;-77
2021/10/09 08:36:01;;;;;;;24.75;16.50;;;10.40;78.00;;;;;;5024889;28;20195;-77
2021/10/09 08:38:48;;;;;;;24.15;15.75;;;10.50;77.30;;;;;;5050126;28;20246;-77
2021/10/09 08:41:15;;;;;;;23.67;16.02;;;10.60;79.00;;;;;;5040388;28;20440;-75
2021/10/09 08:43:45;;;;;;;25.85;16.25;;;10.90;77.10;;;;;;5052208;28;20315;-76
2021/10/09 08:46:15;;;;;;;23.30;16.30;;;11.00;76.30;;;;;;5056327;28;20263;-77
2021/10/09 08:48:45;;;;;;;21.77;14.13;;;11.10;75.60;;;;;;5053099;28;20239;-76
2021/10/09 08:51:12;;;;;;;23.45;16.15;;;11.10;74.10;;;;;;5053226;28;20227;-77
2021/10/09 08:53:44;;;;;;;23.02;16.00;;;11.10;74.80;;;;;;5042322;28;20302;-78
2021/10/09 08:56:27;;;;;;;21.80;15.65;;;11.30;73.70;;;;;;5040514;28;20207;-77
2021/10/09 08:59:06;;;;;;;22.08;16.10;;;11.40;73.40;;;;;;5041667;28;20242;-74
2021/10/09 09:01:40;;;;;;;21.98;15.20;;;11.50;73.00;;;;;;5037571;28;20209;-74
2021/10/09 09:04:14;;;;;;;24.02;16.33;;;11.40;72.70;;;;;;5037005;28;20231;-74
2021/10/09 09:25:17;;;;;;;19.45;14.65;;;11.60;72.40;;;;;;5033168;28;20207;-75
2021/10/09 09:26:20;;;;;;;21.52;15.18;;;12.10;68.70;;;;;;5017699;28;20614;-75
2021/10/09 09:32:05;;;;;;;26.88;15.00;;;12.10;69.50;;;;;;5011541;28;20242;-74
2021/10/09 09:34:39;;;;;;;18.30;15.05;;;12.10;68.90;;;;;;5034987;28;20261;-75
2021/10/09 09:37:17;;;;;;;21.98;14.82;;;12.40;68.20;;;;;;5035150;28;20210;-75
2021/10/09 09:39:45;;;;;;;21.48;14.73;;;12.60;66.60;;;;;;5035326;28;20565;-74
2021/10/09 09:42:23;;;;;;;21.60;15.18;;;12.60;66.60;;;;;;5034841;28;20310;-74
2021/10/09 09:44:54;;;;;;;21.88;15.45;;;12.70;65.60;;;;;;5031765;28;20253;-75
2021/10/09 09:47:34;;;;;;;22.52;15.25;;;12.80;65.30;;;;;;5034312;28;20242;-76
2021/10/09 09:50:02;;;;;;;20.70;15.27;;;12.90;64.80;;;;;;5034005;28;20211;-75
2021/10/09 09:52:32;;;;;;;18.02;14.50;;;12.90;64.80;;;;;;5034031;28;20223;-74
2021/10/09 09:55:00;;;;;;;19.83;14.13;;;12.90;64.50;;;;;;5033318;28;20233;-77
2021/10/09 09:57:30;;;;;;;18.60;13.90;;;13.00;63.90;;;;;;5033113;28;20204;-74
2021/10/09 09:59:57;;;;;;;23.02;15.20;;;13.10;62.60;;;;;;5029447;28;20234;-75
2021/10/09 10:02:30;;;;;;;17.58;14.02;;;13.10;62.10;;;;;;5036442;28;20234;-76
2021/10/09 10:05:02;;;;;;;25.58;14.70;;;13.20;61.80;;;;;;5034026;28;20599;-75
2021/10/09 10:07:29;;;;;;;18.80;15.00;;;13.30;61.70;;;;;;5035021;28;20574;-75
2021/10/09 10:09:56;;;;;;;20.05;14.82;;;13.30;61.70;;;;;;5037402;28;20203;-74
2021/10/09 10:12:25;;;;;;;23.38;15.82;;;13.30;61.70;;;;;;5033485;28;20248;-75
2021/10/09 10:14:53;;;;;;;21.70;14.48;;;13.30;61.70;;;;;;5032960;28;20257;-75
2021/10/09 10:17:37;;;;;;;20.95;16.05;;;13.30;61.70;;;;;;5032194;28;20205;-75
2021/10/09 10:20:05;;;;;;;20.58;15.15;;;13.30;61.70;;;;;;5034384;28;20642;-75
2021/10/09 10:22:55;;;;;;;20.80;15.60;;;13.40;61.80;;;;;;5045384;28;20313;-75
2021/10/09 10:25:34;;;;;;;19.02;14.10;;;13.60;61.90;;;;;;5048329;28;20209;-75
2021/10/09 10:28:03;;;;;;;23.52;14.77;;;13.60;61.90;;;;;;5054305;28;20266;-75
2021/10/09 10:30:32;;;;;;;22.83;16.02;;;13.80;59.90;;;;;;5039638;28;20317;-75
2021/10/09 10:33:48;;;;;;;20.10;15.18;;;13.80;60.80;;;;;;5043641;28;20250;-75
2021/10/09 10:36:36;;;;;;;22.60;15.02;;;14.00;59.10;;;;;;5033353;28;20205;-75
2021/10/09 10:39:04;;;;;;;17.13;14.07;;;13.80;60.30;;;;;;5030421;28;20381;-75
2021/10/09 10:41:51;;;;;;;24.90;14.20;;;14.00;60.50;;;;;;5031397;28;20202;-75
2021/10/09 10:45:16;;;;;;;17.00;14.48;;;14.10;58.50;;;;;;5030925;28;20212;-75
2021/10/09 10:47:48;;;;;;;22.63;14.68;;;14.20;58.00;;;;;;5018960;28;20268;-75
2021/10/09 10:51:09;;;;;;;16.52;13.32;;;14.10;58.60;;;;;;5033938;28;20195;-75
2021/10/09 10:54:15;;;;;;;20.63;14.50;;;14.10;58.20;;;;;;5026665;28;20318;-74
2021/10/09 10:57:22;;;;;;;18.77;14.50;;;14.20;58.50;;;;;;5033181;28;20308;-74
2021/10/09 10:59:55;;;;;;;20.30;14.43;;;14.40;58.00;;;;;;5033987;28;20200;-74
2021/10/09 11:02:24;;;;;;;19.17;14.48;;;14.30;56.90;;;;;;5033990;28;20260;-73
2021/10/09 11:04:53;;;;;;;17.65;13.50;;;14.30;57.20;;;;;;5033702;28;20237;-74
2021/10/09 11:07:22;;;;;;;20.42;14.45;;;14.30;58.30;;;;;;5033129;28;20312;-75
2021/10/09 11:09:51;;;;;;;18.88;15.43;;;14.50;57.30;;;;;;5047321;28;20213;-75
2021/10/09 11:12:26;;;;;;;18.85;14.73;;;14.60;56.30;;;;;;5035794;28;20233;-75
2021/10/09 11:15:07;;;;;;;18.30;13.60;;;14.50;56.10;;;;;;5041049;28;20227;-74
2021/10/09 11:17:36;;;;;;;23.58;14.30;;;14.70;56.20;;;;;;5045496;28;20198;-75
2021/10/09 11:20:06;;;;;;;20.45;14.18;;;14.80;55.50;;;;;;5014540;28;20297;-75
2021/10/09 11:22:45;;;;;;;20.45;12.82;;;14.90;55.00;;;;;;5018592;28;20215;-76
2021/10/09 11:25:25;;;;;;;23.02;14.48;;;14.80;54.90;;;;;;5036316;28;20209;-76
2021/10/09 11:27:52;;;;;;;16.65;13.32;;;14.80;54.30;;;;;;5039981;28;20211;-76
2021/10/09 11:30:18;;;;;;;19.50;13.65;;;14.70;54.70;;;;;;5044052;28;20276;-77
2021/10/09 11:32:46;;;;;;;19.58;14.20;;;14.90;54.40;;;;;;5045812;28;20281;-79
2021/10/09 11:35:14;;;;;;;20.35;13.10;;;15.10;54.00;;;;;;5049347;28;20206;-76
2021/10/09 11:37:50;;;;;;;20.05;14.48;;;15.00;53.90;;;;;;5048118;28;20313;-76
2021/10/09 11:40:30;;;;;;;20.50;13.50;;;15.10;54.00;;;;;;5049987;28;20220;-76
2021/10/09 11:42:59;;;;;;;18.27;14.57;;;15.00;53.90;;;;;;5052150;28;20215;-78
2021/10/09 11:45:33;;;;;;;18.50;14.70;;;15.00;53.90;;;;;;5056272;28;20195;-78
2021/10/09 11:53:42;;;;;;;17.45;13.68;;;15.10;54.70;;;;;;5053820;28;20257;-76
2021/10/09 11:56:12;;;;;;;17.05;13.55;;;15.20;53.00;;;;;;5033342;28;20210;-76
2021/10/09 11:58:47;;;;;;;20.20;14.55;;;15.10;52.00;;;;;;5038712;28;20679;-79
2021/10/09 12:01:36;;;;;;;17.35;14.05;;;15.10;52.80;;;;;;5040488;28;20270;-77
2021/10/09 12:04:20;;;;;;;22.27;14.68;;;14.80;53.00;;;;;;5040947;28;20330;-73
2021/10/09 12:06:50;;;;;;;19.50;14.00;;;15.10;53.00;;;;;;5038094;28;20306;-73
2021/10/09 12:09:33;;;;;;;13.95;12.38;;;15.10;52.30;;;;;;5035155;28;20300;-77
2021/10/09 12:12:13;;;;;;;21.13;13.98;;;15.30;52.30;;;;;;5036362;28;20226;-76
2021/10/09 12:14:41;;;;;;;19.42;13.80;;;15.30;51.60;;;;;;5039114;28;20206;-74
2021/10/09 12:17:08;;;;;;;20.45;13.15;;;15.40;51.20;;;;;;5039016;28;20301;-73
2021/10/09 12:19:35;;;;;;;17.25;13.60;;;15.60;50.70;;;;;;5037008;28;20671;-75
2021/10/09 12:22:04;;;;;;;23.05;14.10;;;15.70;50.70;;;;;;5037217;28;20210;-73
2021/10/09 12:24:33;;;;;;;20.52;13.95;;;15.80;50.10;;;;;;5044256;28;20203;-75
2021/10/09 12:27:01;;;;;;;17.42;12.77;;;15.60;50.60;;;;;;5039305;28;20210;-74
2021/10/09 12:29:30;;;;;;;17.73;14.82;;;15.50;50.20;;;;;;5035828;28;20203;-75
2021/10/09 12:32:14;;;;;;;19.00;13.90;;;15.60;50.90;;;;;;5036448;28;20329;-75
2021/10/09 12:34:41;;;;;;;24.42;14.30;;;15.60;50.00;;;;;;5036689;28;20446;-75
2021/10/09 12:37:21;;;;;;;22.43;13.20;;;15.70;49.70;;;;;;5037061;28;20215;-74
2021/10/09 12:40:05;;;;;;;16.70;13.20;;;15.60;49.50;;;;;;5044966;28;20420;-74
2021/10/09 12:42:32;;;;;;;25.25;13.45;;;15.60;49.60;;;;;;5049733;28;20452;-76
2021/10/09 12:45:01;;;;;;;17.20;12.97;;;15.80;49.70;;;;;;5043721;28;20221;-73
2021/10/09 12:47:27;;;;;;;22.20;13.20;;;15.80;48.70;;;;;;5045172;28;21003;-76
2021/10/09 12:49:54;;;;;;;20.02;14.55;;;15.80;48.60;;;;;;5044117;28;20553;-74
2021/10/09 12:52:21;;;;;;;19.30;13.20;;;15.70;49.60;;;;;;5043905;28;20322;-72
2021/10/09 12:54:48;;;;;;;18.17;13.00;;;15.70;49.40;;;;;;5045175;28;20927;-76
2021/10/09 12:57:15;;;;;;;17.03;12.50;;;15.70;49.50;;;;;;5037519;28;20556;-75
2021/10/09 12:59:42;;;;;;;18.47;12.13;;;15.90;49.10;;;;;;5038487;28;20490;-75
2021/10/09 13:02:10;;;;;;;17.07;12.20;;;15.80;48.20;;;;;;5039380;28;20457;-75
2021/10/09 13:04:38;;;;;;;18.60;13.05;;;15.80;48.70;;;;;;5039055;28;20453;-76
2021/10/09 13:07:05;;;;;;;21.63;13.97;;;16.00;48.20;;;;;;5041125;28;20610;-75
2021/10/09 13:09:32;;;;;;;18.92;12.32;;;15.80;47.90;;;;;;5049316;28;20468;-75
2021/10/09 13:12:00;;;;;;;16.27;12.53;;;16.00;48.00;;;;;;5054996;28;20219;-76
2021/10/09 13:14:27;;;;;;;19.07;13.20;;;16.00;48.00;;;;;;5055553;28;20461;-76
2021/10/09 13:16:54;;;;;;;18.83;11.93;;;16.00;47.90;;;;;;5055757;28;20485;-76
2021/10/09 13:19:22;;;;;;;14.77;12.03;;;16.10;48.00;;;;;;5038963;28;20583;-76
2021/10/09 13:21:49;;;;;;;17.23;12.20;;;16.20;48.00;;;;;;5038763;28;20808;-76
2021/10/09 13:24:16;;;;;;;16.33;13.50;;;16.30;47.30;;;;;;5038847;28;20494;-76
2021/10/09 13:26:43;;;;;;;21.30;14.17;;;16.30;47.00;;;;;;5039504;28;20434;-76
2021/10/09 13:29:10;;;;;;;17.73;14.20;;;16.30;45.60;;;;;;5037788;28;20968;-76
2021/10/09 13:31:37;;;;;;;18.90;13.47;;;16.20;46.40;;;;;;5038580;28;20494;-76
2021/10/09 13:34:03;;;;;;;14.63;12.00;;;16.00;47.20;;;;;;5037707;28;20493;-76
2021/10/09 13:36:32;;;;;;;15.40;12.00;;;16.10;47.20;;;;;;5038290;28;20464;-77
2021/10/09 13:38:59;;;;;;;20.33;13.83;;;16.10;46.90;;;;;;5045089;28;20463;-77
2021/10/09 13:41:26;;;;;;;16.00;12.27;;;16.20;46.80;;;;;;5042296;28;20481;-76
2021/10/09 13:43:53;;;;;;;14.50;12.53;;;16.30;45.40;;;;;;5041329;28;20509;-76
2021/10/09 13:46:20;;;;;;;17.60;12.10;;;16.20;45.30;;;;;;5044436;28;20549;-76
2021/10/09 13:48:48;;;;;;;14.10;12.30;;;16.20;46.10;;;;;;5042727;28;20497;-76
2021/10/09 13:51:15;;;;;;;14.87;11.73;;;16.20;46.70;;;;;;5039199;28;20453;-76
2021/10/09 13:53:44;;;;;;;18.43;11.90;;;16.10;46.20;;;;;;5038717;28;20456;-75
2021/10/09 13:56:12;;;;;;;14.38;12.30;;;16.20;46.30;;;;;;5038390;28;20488;-75
2021/10/09 13:58:40;;;;;;;15.85;12.48;;;16.10;45.70;;;;;;5038557;28;20211;-76
2021/10/09 14:01:07;;;;;;;15.15;11.57;;;16.10;45.30;;;;;;5038233;28;21803;-78
2021/10/09 14:03:36;;;;;;;14.27;11.97;;;16.20;45.30;;;;;;5040846;28;20235;-77
2021/10/09 14:06:03;;;;;;;18.83;11.87;;;16.20;45.30;;;;;;5039349;28;20489;-77
2021/10/09 14:08:31;;;;;;;14.57;12.40;;;16.10;45.20;;;;;;5036643;28;20441;-78
2021/10/09 14:11:00;;;;;;;15.60;11.30;;;16.10;45.20;;;;;;5056939;28;20536;-77
2021/10/09 14:13:28;;;;;;;14.53;11.77;;;16.20;45.30;;;;;;5048502;28;20549;-78
2021/10/09 14:15:56;;;;;;;16.20;12.67;;;16.20;45.30;;;;;;5037988;28;20465;-76
2021/10/09 14:18:23;;;;;;;16.93;12.23;;;16.30;45.40;;;;;;5036863;28;20486;-77
2021/10/09 14:20:51;;;;;;;19.93;12.20;;;16.20;45.30;;;;;;5036646;28;20428;-76